Time;durP1;ratioP1;P1;durP2;ratioP2;P2;SDS_P1;SDS_P2;PMS_P1;PMS_P2;Temp;Humidity;BMP_temperature;BMP_pressure;BME280_temperature;BME280_humidity;BME280_pressure;Samples;Min_cycle;Max_cycle;Signal;HPM_P1;HPM_P2
2024/01/28 00:00:45;;;;;;;6.03;2.58;;;3.90;99.90;;;;;;4995635;28;20669;-66
2024/01/28 00:03:12;;;;;;;6.15;1.38;;;3.90;99.90;;;;;;4994948;28;20044;-67
2024/01/28 00:05:38;;;;;;;6.35;1.98;;;3.90;99.90;;;;;;4995053;28;20025;-67
2024/01/28 00:08:08;;;;;;;2.58;1.67;;;3.90;99.90;;;;;;4997172;28;20402;-67
2024/01/28 00:10:34;;;;;;;8.18;2.03;;;3.90;99.90;;;;;;4998056;28;20052;-67
2024/01/28 00:13:00;;;;;;;7.00;2.35;;;3.80;99.90;;;;;;4995376;28;20367;-67
2024/01/28 00:15:25;;;;;;;4.95;1.80;;;3.80;99.90;;;;;;4998312;28;20128;-66
2024/01/28 00:17:57;;;;;;;5.97;1.90;;;3.80;99.90;;;;;;4995883;28;20524;-66
2024/01/28 00:20:23;;;;;;;8.68;2.30;;;3.80;99.90;;;;;;4996552;28;20038;-66
2024/01/28 00:22:49;;;;;;;8.65;2.88;;;3.70;99.90;;;;;;4995035;28;20115;-67
2024/01/28 00:25:16;;;;;;;12.25;2.58;;;3.70;99.90;;;;;;4994850;28;20368;-66
2024/01/28 00:27:42;;;;;;;5.15;2.35;;;3.70;99.90;;;;;;4995073;28;20036;-66
2024/01/28 00:30:11;;;;;;;9.13;3.28;;;3.70;99.90;;;;;;4995380;28;20022;-67
2024/01/28 00:32:37;;;;;;;8.77;2.45;;;3.70;99.90;;;;;;4994859;28;20038;-67
2024/01/28 00:35:04;;;;;;;14.45;2.22;;;3.70;99.90;;;;;;4996706;28;20088;-66
2024/01/28 00:37:29;;;;;;;6.95;2.35;;;3.60;99.90;;;;;;4997706;28;20469;-66
2024/01/28 00:39:55;;;;;;;12.35;2.90;;;3.60;99.90;;;;;;4997007;28;20091;-67
2024/01/28 00:42:21;;;;;;;12.00;2.70;;;3.60;99.90;;;;;;4997672;28;20137;-66
2024/01/28 00:44:47;;;;;;;6.25;2.75;;;3.60;99.90;;;;;;4996191;28;20025;-66
2024/01/28 00:47:12;;;;;;;12.63;2.40;;;3.50;99.90;;;;;;4995155;28;20482;-65
2024/01/28 00:49:38;;;;;;;10.40;2.17;;;3.40;99.90;;;;;;4997069;28;20109;-67
2024/01/28 00:52:05;;;;;;;10.80;2.30;;;3.40;99.90;;;;;;4995786;28;20104;-67
2024/01/28 00:54:30;;;;;;;6.78;2.00;;;3.40;99.90;;;;;;4993196;28;20038;-67
2024/01/28 00:56:56;;;;;;;6.35;2.30;;;3.40;99.90;;;;;;4996489;28;20038;-67
2024/01/28 00:59:22;;;;;;;7.47;2.30;;;3.40;99.90;;;;;;4997013;28;20036;-67
2024/01/28 01:01:48;;;;;;;7.97;2.15;;;3.40;99.90;;;;;;4991321;28;20038;-67
2024/01/28 01:04:14;;;;;;;6.82;1.80;;;3.40;99.90;;;;;;4994284;28;20030;-67
2024/01/28 01:06:44;;;;;;;6.40;2.53;;;3.30;99.90;;;;;;4995222;28;20039;-66
2024/01/28 01:09:10;;;;;;;15.18;3.08;;;3.30;99.90;;;;;;4995128;28;20398;-66
2024/01/28 01:11:36;;;;;;;10.75;2.60;;;3.30;99.90;;;;;;4996961;28;20449;-66
2024/01/28 01:14:02;;;;;;;7.55;2.35;;;3.30;99.90;;;;;;4992870;28;20034;-66
2024/01/28 01:16:28;;;;;;;6.65;2.65;;;3.30;99.90;;;;;;4997865;28;20084;-66
2024/01/28 01:18:54;;;;;;;8.60;2.05;;;3.30;99.90;;;;;;4997944;28;20044;-66
2024/01/28 01:21:19;;;;;;;8.57;2.30;;;3.30;99.90;;;;;;4998301;28;20030;-66
2024/01/28 01:23:45;;;;;;;9.80;2.35;;;3.30;99.90;;;;;;4999269;28;20038;-66
2024/01/28 01:26:11;;;;;;;4.53;2.30;;;3.20;99.90;;;;;;4999100;28;20127;-66
2024/01/28 01:28:37;;;;;;;7.13;2.22;;;3.30;99.90;;;;;;4997161;28;20175;-66
2024/01/28 01:31:03;;;;;;;9.27;2.20;;;3.20;99.90;;;;;;4997982;28;20180;-66
2024/01/28 01:33:29;;;;;;;2.45;1.50;;;3.20;99.90;;;;;;4998649;28;20095;-66
2024/01/28 01:35:55;;;;;;;8.15;2.78;;;3.20;99.90;;;;;;4998084;28;20042;-66
2024/01/28 01:38:22;;;;;;;8.25;2.38;;;3.10;99.90;;;;;;4997202;28;20072;-67
2024/01/28 01:40:47;;;;;;;5.70;2.53;;;3.00;99.90;;;;;;4998498;28;20457;-67
2024/01/28 01:43:15;;;;;;;5.72;2.28;;;3.00;99.90;;;;;;4997507;28;20034;-66
2024/01/28 01:45:42;;;;;;;8.07;2.15;;;2.90;99.90;;;;;;4998167;28;20026;-66
2024/01/28 01:48:10;;;;;;;7.38;2.63;;;2.90;99.90;;;;;;4998135;28;20117;-66
2024/01/28 01:50:37;;;;;;;11.50;2.55;;;2.90;99.90;;;;;;4998661;28;20026;-66
2024/01/28 01:53:04;;;;;;;5.97;2.22;;;2.90;99.90;;;;;;4999438;28;20041;-67
2024/01/28 01:55:34;;;;;;;7.50;1.77;;;2.90;99.90;;;;;;5001759;28;20460;-67
2024/01/28 01:58:01;;;;;;;8.30;2.00;;;2.80;99.90;;;;;;4999411;28;20138;-67
2024/01/28 02:00:28;;;;;;;9.35;2.78;;;2.90;99.90;;;;;;4996274;28;20018;-67
2024/01/28 02:02:54;;;;;;;5.55;1.85;;;2.90;99.90;;;;;;4998016;28;20041;-67
2024/01/28 02:05:20;;;;;;;7.50;1.92;;;2.90;99.90;;;;;;4996248;28;20038;-66
2024/01/28 02:07:46;;;;;;;12.68;2.08;;;2.90;99.90;;;;;;4996275;28;20088;-67
2024/01/28 02:10:11;;;;;;;13.15;2.20;;;3.00;99.90;;;;;;4995733;28;20038;-67
2024/01/28 02:12:38;;;;;;;4.50;1.70;;;3.00;99.90;;;;;;5000586;28;20041;-66
2024/01/28 02:15:05;;;;;;;14.48;3.05;;;3.00;99.90;;;;;;4993733;28;20113;-67
2024/01/28 02:17:31;;;;;;;9.95;2.47;;;3.00;99.90;;;;;;4998962;28;20034;-66
2024/01/28 02:19:57;;;;;;;7.85;2.63;;;3.00;99.90;;;;;;4997062;28;20037;-67
2024/01/28 02:22:23;;;;;;;5.97;2.72;;;2.90;99.90;;;;;;4998731;28;20389;-67
2024/01/28 02:24:50;;;;;;;5.15;2.08;;;2.80;99.90;;;;;;4996556;28;20030;-67
2024/01/28 02:27:16;;;;;;;7.35;1.95;;;2.70;99.90;;;;;;4999317;28;20033;-66
2024/01/28 02:29:42;;;;;;;7.22;1.88;;;2.60;99.90;;;;;;4995463;28;20611;-66
2024/01/28 02:32:10;;;;;;;9.30;1.70;;;2.60;99.90;;;;;;4999559;28;20213;-67
2024/01/28 02:34:36;;;;;;;3.53;1.98;;;2.50;99.90;;;;;;4997590;28;20034;-67
2024/01/28 02:37:02;;;;;;;11.55;2.35;;;2.50;99.90;;;;;;4996372;28;20643;-66
2024/01/28 02:39:28;;;;;;;5.95;1.98;;;2.50;99.90;;;;;;4999269;28;20124;-67
2024/01/28 02:41:53;;;;;;;4.97;2.05;;;2.50;99.90;;;;;;4999221;28;20527;-67
2024/01/28 02:44:19;;;;;;;5.95;1.70;;;2.50;99.90;;;;;;4997738;28;20026;-67
2024/01/28 02:46:45;;;;;;;6.53;2.22;;;2.40;99.90;;;;;;4994241;28;20028;-67
2024/01/28 02:49:11;;;;;;;7.45;2.58;;;2.40;99.90;;;;;;4998001;28;20034;-67
2024/01/28 02:51:37;;;;;;;7.47;2.15;;;2.40;99.90;;;;;;4996161;28;20030;-66
2024/01/28 02:54:03;;;;;;;7.90;1.80;;;2.30;99.90;;;;;;4994964;28;20518;-67
2024/01/28 02:56:28;;;;;;;6.97;2.10;;;2.30;99.90;;;;;;4996337;28;20100;-67
2024/01/28 02:58:54;;;;;;;7.05;1.83;;;2.30;99.90;;;;;;4999193;28;20116;-67
2024/01/28 03:01:20;;;;;;;7.20;2.42;;;2.30;99.90;;;;;;4995343;28;20034;-67
2024/01/28 03:03:46;;;;;;;4.65;1.58;;;2.30;99.90;;;;;;4994691;28;20034;-67
2024/01/28 03:06:12;;;;;;;5.70;2.17;;;2.30;99.90;;;;;;4998652;28;20018;-67
2024/01/28 03:08:38;;;;;;;8.77;2.40;;;2.30;99.90;;;;;;4997471;28;20034;-67
2024/01/28 03:11:04;;;;;;;7.65;1.98;;;2.30;99.90;;;;;;4997090;28;20039;-67
2024/01/28 03:13:29;;;;;;;9.88;2.15;;;2.40;99.90;;;;;;4995986;28;20049;-67
2024/01/28 03:15:55;;;;;;;7.30;1.63;;;2.40;99.90;;;;;;4997943;28;20030;-67
2024/01/28 03:18:21;;;;;;;7.97;1.60;;;2.40;99.90;;;;;;4997497;28;20376;-66
2024/01/28 03:20:47;;;;;;;4.63;1.30;;;2.40;99.90;;;;;;4995287;28;20033;-67
2024/01/28 03:23:14;;;;;;;5.60;1.80;;;2.40;99.90;;;;;;4997916;28;21703;-65
2024/01/28 03:25:40;;;;;;;6.75;2.53;;;2.30;99.90;;;;;;4998690;28;20488;-67
2024/01/28 03:28:06;;;;;;;3.53;1.83;;;2.40;99.90;;;;;;4994642;28;20040;-67
2024/01/28 03:30:32;;;;;;;5.88;2.20;;;2.40;99.90;;;;;;4998101;28;20137;-67
2024/01/28 03:32:58;;;;;;;12.52;2.00;;;2.50;99.90;;;;;;4995528;28;20113;-66
2024/01/28 03:35:24;;;;;;;6.07;1.65;;;2.50;99.90;;;;;;4994632;28;20037;-64
2024/01/28 03:37:50;;;;;;;7.18;2.00;;;2.60;99.90;;;;;;4996202;28;20081;-64
2024/01/28 03:40:16;;;;;;;8.38;1.63;;;2.60;99.90;;;;;;4996448;28;20032;-66
2024/01/28 03:42:42;;;;;;;9.75;1.90;;;2.60;99.90;;;;;;4997232;28;20144;-67
2024/01/28 03:45:09;;;;;;;11.63;3.92;;;2.60;99.90;;;;;;4998046;28;20036;-66
2024/01/28 03:47:36;;;;;;;6.75;3.03;;;2.60;99.90;;;;;;4995663;28;20076;-67
2024/01/28 03:50:03;;;;;;;7.95;2.78;;;2.50;99.90;;;;;;4999451;28;20792;-67
2024/01/28 03:52:29;;;;;;;6.90;2.85;;;2.40;99.90;;;;;;4995973;28;20041;-67
2024/01/28 03:54:54;;;;;;;8.95;3.08;;;2.30;99.90;;;;;;4998375;28;20034;-67
2024/01/28 03:57:20;;;;;;;9.55;2.95;;;2.20;99.90;;;;;;4997043;28;20026;-66
2024/01/28 03:59:46;;;;;;;5.82;1.70;;;2.10;99.90;;;;;;4995443;28;20477;-66
2024/01/28 04:02:14;;;;;;;4.70;1.88;;;2.00;99.90;;;;;;4994402;28;20034;-67
2024/01/28 04:04:40;;;;;;;8.10;2.45;;;2.00;99.90;;;;;;4994806;28;20030;-67
2024/01/28 04:07:06;;;;;;;5.22;2.33;;;2.00;99.90;;;;;;4996148;28;20038;-69
2024/01/28 04:09:32;;;;;;;4.35;1.98;;;2.00;99.90;;;;;;4992457;28;20018;-67
2024/01/28 04:11:59;;;;;;;13.82;2.67;;;2.00;99.90;;;;;;4994017;28;20041;-67
2024/01/28 04:14:25;;;;;;;15.90;3.80;;;2.00;99.90;;;;;;4995972;28;20026;-67
2024/01/28 04:16:51;;;;;;;14.45;3.70;;;2.00;99.90;;;;;;4995304;28;20496;-66
2024/01/28 04:19:16;;;;;;;11.82;2.65;;;2.00;99.90;;;;;;4989503;28;20509;-67
2024/01/28 04:21:42;;;;;;;13.00;2.90;;;2.00;99.90;;;;;;4995215;28;20041;-67
2024/01/28 04:24:08;;;;;;;7.00;2.38;;;2.00;99.90;;;;;;4997691;28;20026;-63
2024/01/28 04:26:34;;;;;;;9.65;2.22;;;2.00;99.90;;;;;;4992178;28;20022;-63
2024/01/28 04:29:00;;;;;;;5.97;1.73;;;1.90;99.90;;;;;;4993501;28;20032;-65
2024/01/28 04:31:26;;;;;;;7.35;1.98;;;1.90;99.90;;;;;;4994534;28;20032;-67
2024/01/28 04:33:54;;;;;;;4.43;1.75;;;1.90;99.90;;;;;;4997133;28;20042;-67
2024/01/28 04:36:20;;;;;;;6.75;1.90;;;1.90;99.90;;;;;;4993058;28;20501;-67
2024/01/28 04:38:47;;;;;;;5.32;2.38;;;2.00;99.90;;;;;;4992924;28;20060;-67
2024/01/28 04:41:13;;;;;;;11.05;2.20;;;2.00;99.90;;;;;;4994730;28;20506;-67
2024/01/28 04:43:39;;;;;;;7.25;1.77;;;2.00;99.90;;;;;;4995762;28;20041;-67
2024/01/28 04:46:05;;;;;;;7.05;1.88;;;2.00;99.90;;;;;;4997866;28;20033;-67
2024/01/28 04:48:31;;;;;;;5.60;1.67;;;2.00;99.90;;;;;;4995539;28;20025;-66
2024/01/28 04:50:56;;;;;;;9.32;2.10;;;2.00;99.90;;;;;;4999763;28;20417;-67
2024/01/28 04:53:22;;;;;;;9.75;2.35;;;2.00;99.90;;;;;;5000239;28;20510;-67
2024/01/28 04:55:48;;;;;;;10.07;2.22;;;2.10;99.90;;;;;;5000875;28;20057;-67
2024/01/28 04:58:14;;;;;;;5.63;1.95;;;2.10;99.90;;;;;;4996426;28;20394;-64
2024/01/28 05:00:39;;;;;;;10.52;1.83;;;2.10;99.90;;;;;;4997914;28;20087;-64
2024/01/28 05:03:05;;;;;;;9.75;1.75;;;2.00;99.90;;;;;;5000904;28;20127;-64
2024/01/28 05:05:31;;;;;;;6.20;1.42;;;2.10;99.90;;;;;;4997053;28;20095;-64
2024/01/28 05:07:57;;;;;;;4.88;1.60;;;2.00;99.90;;;;;;5000201;28;20580;-64
2024/01/28 05:10:23;;;;;;;9.05;2.13;;;2.00;99.90;;;;;;4998593;28;20113;-64
2024/01/28 05:12:49;;;;;;;8.75;2.45;;;2.00;99.90;;;;;;5001527;28;20029;-64
2024/01/28 05:15:16;;;;;;;8.68;2.88;;;2.00;99.90;;;;;;4996765;28;20029;-64
2024/01/28 05:17:43;;;;;;;9.38;3.08;;;2.10;99.90;;;;;;5000578;28;20038;-64
2024/01/28 05:20:09;;;;;;;7.93;2.78;;;2.00;99.90;;;;;;4997975;28;20100;-64
2024/01/28 05:22:35;;;;;;;9.45;2.28;;;2.00;99.90;;;;;;4999829;28;20039;-64
2024/01/28 05:25:02;;;;;;;7.75;2.20;;;2.00;99.90;;;;;;5001389;28;20041;-63
2024/01/28 05:27:29;;;;;;;7.88;2.58;;;2.00;99.90;;;;;;4995039;28;20164;-64
2024/01/28 05:29:57;;;;;;;10.68;2.05;;;2.00;99.90;;;;;;5000081;28;20653;-64
2024/01/28 05:32:22;;;;;;;6.65;2.00;;;2.00;99.90;;;;;;4998908;28;20072;-63
2024/01/28 05:34:48;;;;;;;10.77;1.92;;;2.00;99.90;;;;;;4999788;28;20121;-64
2024/01/28 05:37:15;;;;;;;9.55;2.17;;;2.00;99.90;;;;;;4999301;28;20042;-64
2024/01/28 05:39:41;;;;;;;9.70;2.63;;;1.90;99.90;;;;;;4999028;28;20113;-64
2024/01/28 05:42:07;;;;;;;8.25;1.98;;;1.90;99.90;;;;;;5002069;28;20685;-64
2024/01/28 05:44:33;;;;;;;6.18;2.08;;;2.00;99.90;;;;;;4999245;28;20030;-64
2024/01/28 05:46:58;;;;;;;8.70;2.75;;;1.90;99.90;;;;;;4999869;28;20030;-64
2024/01/28 05:49:24;;;;;;;7.93;1.98;;;1.90;99.90;;;;;;4999512;28;20022;-64
2024/01/28 05:51:50;;;;;;;4.28;2.08;;;1.90;99.90;;;;;;5001334;28;20159;-65
2024/01/28 05:54:16;;;;;;;6.43;1.98;;;1.90;99.90;;;;;;4998093;28;20849;-67
2024/01/28 05:56:43;;;;;;;7.70;2.20;;;1.90;99.90;;;;;;4999296;28;20026;-67
2024/01/28 05:59:08;;;;;;;6.47;2.03;;;1.90;99.90;;;;;;4998274;28;20037;-67
2024/01/28 06:01:34;;;;;;;5.03;2.05;;;1.90;99.90;;;;;;4995980;28;20026;-67
2024/01/28 06:04:00;;;;;;;10.25;1.92;;;1.90;99.90;;;;;;4996280;28;20030;-67
2024/01/28 06:06:26;;;;;;;8.60;2.03;;;1.90;99.90;;;;;;4997877;28;20129;-67
2024/01/28 06:08:52;;;;;;;10.23;2.22;;;1.80;99.90;;;;;;4998209;28;20022;-67
2024/01/28 06:11:18;;;;;;;10.00;2.50;;;1.80;99.90;;;;;;4999153;28;20493;-67
2024/01/28 06:13:43;;;;;;;7.70;2.40;;;1.80;99.90;;;;;;4997394;28;20034;-67
2024/01/28 06:16:09;;;;;;;9.95;2.50;;;1.80;99.90;;;;;;4999994;28;20085;-67
2024/01/28 06:18:41;;;;;;;4.80;2.00;;;1.80;99.90;;;;;;4996950;28;20046;-67
2024/01/28 06:21:07;;;;;;;13.57;2.75;;;1.70;99.90;;;;;;4995507;28;20038;-66
2024/01/28 06:23:32;;;;;;;5.68;1.90;;;1.70;99.90;;;;;;4999149;28;20048;-66
2024/01/28 06:25:58;;;;;;;7.22;2.53;;;1.70;99.90;;;;;;5001973;28;20108;-67
2024/01/28 06:28:24;;;;;;;8.88;2.92;;;1.70;99.90;;;;;;4995394;28;20578;-67
2024/01/28 06:30:50;;;;;;;6.80;2.47;;;1.60;99.90;;;;;;4997086;28;20565;-66
2024/01/28 06:33:16;;;;;;;10.15;2.65;;;1.60;99.90;;;;;;4999554;28;20034;-67
2024/01/28 06:35:42;;;;;;;9.82;2.35;;;1.60;99.90;;;;;;5002388;28;20038;-67
2024/01/28 06:38:08;;;;;;;8.00;3.03;;;1.60;99.90;;;;;;5000627;28;20514;-66
2024/01/28 06:40:33;;;;;;;6.40;2.50;;;1.60;99.90;;;;;;4994996;28;20058;-66
2024/01/28 06:42:59;;;;;;;7.38;2.00;;;1.60;99.90;;;;;;4995122;28;20505;-66
2024/01/28 06:45:25;;;;;;;8.25;2.13;;;1.60;99.90;;;;;;4998264;28;20536;-66
2024/01/28 06:47:50;;;;;;;9.68;2.65;;;1.60;99.90;;;;;;4996505;28;20532;-66
2024/01/28 06:50:16;;;;;;;8.02;2.17;;;1.60;99.90;;;;;;4999199;28;20026;-67
2024/01/28 06:52:42;;;;;;;6.78;2.40;;;1.60;99.90;;;;;;4995898;28;20034;-66
2024/01/28 06:55:09;;;;;;;9.70;2.25;;;1.50;99.90;;;;;;4996467;28;20035;-66
2024/01/28 06:57:34;;;;;;;14.35;2.83;;;1.50;99.90;;;;;;4996400;28;20134;-64
2024/01/28 07:00:00;;;;;;;11.70;2.88;;;1.60;99.90;;;;;;4995609;28;20405;-63
2024/01/28 07:02:26;;;;;;;6.20;3.53;;;1.60;99.90;;;;;;4997518;28;21789;-64
2024/01/28 07:04:52;;;;;;;6.22;2.75;;;1.60;99.90;;;;;;4999044;28;20799;-63
2024/01/28 07:07:18;;;;;;;6.55;3.03;;;1.60;99.90;;;;;;4996427;28;20375;-63
2024/01/28 07:09:44;;;;;;;11.07;4.03;;;1.60;99.90;;;;;;4997754;28;20156;-64
2024/01/28 07:12:10;;;;;;;14.93;4.00;;;1.60;99.90;;;;;;4995908;28;20060;-63
2024/01/28 07:14:35;;;;;;;11.20;3.90;;;1.60;99.90;;;;;;4998079;28;20410;-64
2024/01/28 07:17:01;;;;;;;9.23;3.42;;;1.60;99.90;;;;;;4996964;28;20034;-65
2024/01/28 07:19:27;;;;;;;14.48;4.18;;;1.60;99.90;;;;;;4997561;28;20795;-66
2024/01/28 07:21:53;;;;;;;9.73;4.32;;;1.60;99.90;;;;;;4998012;28;20053;-66
2024/01/28 07:24:19;;;;;;;15.30;3.70;;;1.70;99.90;;;;;;4996626;28;20022;-67
2024/01/28 07:26:46;;;;;;;11.40;4.28;;;1.70;99.90;;;;;;4998668;28;20038;-67
2024/01/28 07:29:12;;;;;;;10.85;4.38;;;1.80;99.90;;;;;;4996565;28;20026;-66
2024/01/28 07:31:38;;;;;;;17.08;4.18;;;1.80;99.90;;;;;;4997210;28;20650;-66
2024/01/28 07:34:04;;;;;;;14.52;3.30;;;1.80;99.90;;;;;;4998123;28;20088;-67
2024/01/28 07:36:30;;;;;;;6.93;3.67;;;1.90;99.90;;;;;;4994454;28;20455;-66
2024/01/28 07:38:56;;;;;;;9.60;3.90;;;1.90;99.90;;;;;;4997120;28;20053;-67
2024/01/28 07:41:23;;;;;;;12.60;4.35;;;1.90;99.90;;;;;;4995730;28;20029;-67
2024/01/28 07:43:50;;;;;;;13.77;4.10;;;1.90;99.90;;;;;;4995917;28;20041;-67
2024/01/28 07:46:16;;;;;;;12.35;4.53;;;2.00;99.90;;;;;;4995547;28;20465;-67
2024/01/28 07:48:42;;;;;;;9.73;4.47;;;2.00;99.90;;;;;;4996649;28;20025;-67
2024/01/28 07:51:08;;;;;;;14.25;4.35;;;2.00;99.90;;;;;;4995071;28;20382;-66
2024/01/28 07:53:34;;;;;;;13.32;4.00;;;2.00;99.90;;;;;;4995070;28;20512;-67
2024/01/28 07:56:02;;;;;;;13.88;4.05;;;2.10;99.90;;;;;;4995807;28;20042;-67
2024/01/28 07:58:28;;;;;;;7.82;3.50;;;2.10;99.90;;;;;;4996637;28;20026;-67
2024/01/28 08:00:55;;;;;;;10.70;4.38;;;2.20;99.90;;;;;;4998686;28;20029;-66
2024/01/28 08:03:21;;;;;;;12.23;4.45;;;2.20;99.90;;;;;;4995706;28;20042;-67
2024/01/28 08:05:47;;;;;;;11.80;4.82;;;2.20;99.90;;;;;;4997158;28;20044;-64
2024/01/28 08:08:13;;;;;;;6.75;3.88;;;2.30;99.90;;;;;;4996868;28;20037;-64
2024/01/28 08:10:39;;;;;;;10.30;4.50;;;2.40;99.90;;;;;;4994888;28;20034;-63
2024/01/28 08:13:04;;;;;;;13.48;4.22;;;2.50;99.90;;;;;;4996786;28;20030;-64
2024/01/28 08:15:30;;;;;;;10.95;4.57;;;2.60;99.90;;;;;;4994239;28;20057;-64
2024/01/28 08:17:56;;;;;;;11.38;4.47;;;2.70;99.90;;;;;;4994873;28;20041;-64
2024/01/28 08:20:22;;;;;;;12.90;4.30;;;2.80;99.90;;;;;;4996639;28;20037;-64
2024/01/28 08:22:50;;;;;;;7.68;3.28;;;2.90;99.90;;;;;;4998921;28;20037;-64
2024/01/28 08:25:16;;;;;;;6.93;3.42;;;3.00;99.90;;;;;;4996016;28;20025;-64
2024/01/28 08:27:42;;;;;;;11.40;3.63;;;3.10;99.90;;;;;;4997697;28;20405;-64
2024/01/28 08:30:08;;;;;;;8.55;3.63;;;3.20;99.90;;;;;;4998831;28;20022;-64
2024/01/28 08:32:34;;;;;;;8.27;3.78;;;3.30;99.90;;;;;;4994827;28;20034;-64
2024/01/28 08:35:00;;;;;;;15.65;3.53;;;3.40;99.90;;;;;;4999031;28;20037;-64
2024/01/28 08:37:26;;;;;;;12.93;3.92;;;3.50;99.90;;;;;;4992576;28;20034;-64
2024/01/28 08:39:52;;;;;;;17.27;3.90;;;3.60;99.90;;;;;;4993801;28;20034;-64
2024/01/28 08:42:19;;;;;;;9.88;3.35;;;3.60;99.90;;;;;;4998365;28;20030;-64
2024/01/28 08:44:46;;;;;;;8.43;3.22;;;3.70;99.90;;;;;;4995716;28;20064;-64
2024/01/28 08:47:12;;;;;;;8.38;3.65;;;3.80;99.90;;;;;;4992604;28;20035;-63
2024/01/28 08:49:38;;;;;;;9.00;4.32;;;3.90;99.90;;;;;;4995859;28;20268;-66
2024/01/28 08:52:04;;;;;;;10.10;3.72;;;3.90;99.90;;;;;;4994504;28;20048;-66
2024/01/28 08:54:33;;;;;;;9.15;3.30;;;4.00;99.90;;;;;;4968130;28;20027;-67
2024/01/28 08:56:59;;;;;;;16.95;3.70;;;4.20;99.90;;;;;;4995212;28;20147;-67
2024/01/28 08:59:25;;;;;;;9.43;3.75;;;4.40;99.90;;;;;;4995831;28;20030;-67
2024/01/28 09:01:51;;;;;;;10.65;3.80;;;4.70;99.90;;;;;;4997038;28;20022;-66
2024/01/28 09:04:18;;;;;;;8.65;4.18;;;4.90;99.90;;;;;;4992563;28;20711;-66
2024/01/28 09:06:44;;;;;;;12.27;4.45;;;5.00;99.90;;;;;;4995894;28;20397;-66
2024/01/28 09:09:10;;;;;;;12.82;4.72;;;5.00;99.90;;;;;;4994514;28;20030;-66
2024/01/28 09:11:37;;;;;;;12.80;4.38;;;5.10;99.90;;;;;;4992871;28;20044;-62
2024/01/28 09:14:03;;;;;;;15.07;5.35;;;5.10;99.90;;;;;;4992113;28;20034;-65
2024/01/28 09:16:29;;;;;;;12.88;4.35;;;5.00;99.90;;;;;;4995326;28;20042;-62
2024/01/28 09:18:55;;;;;;;11.73;4.07;;;5.10;99.90;;;;;;4993287;28;20030;-64
2024/01/28 09:21:21;;;;;;;12.05;4.43;;;5.00;99.90;;;;;;4996399;28;20033;-64
2024/01/28 09:29:44;;;;;;;10.65;5.88;;;5.50;99.90;;;;;;4284622;26;20046;-70
2024/01/28 09:32:09;;;;;;;13.88;5.28;;;6.30;99.90;;;;;;4977454;28;20046;-69
2024/01/28 09:34:35;;;;;;;8.88;4.18;;;7.30;99.90;;;;;;4974871;28;20190;-69
2024/01/28 09:37:01;;;;;;;13.82;4.32;;;8.60;99.90;;;;;;4980116;28;20026;-69
2024/01/28 09:39:28;;;;;;;11.35;6.00;;;9.60;98.10;;;;;;4980277;28;20046;-69
2024/01/28 09:41:56;;;;;;;16.30;4.90;;;10.30;95.50;;;;;;4977043;28;20038;-69
2024/01/28 09:44:21;;;;;;;7.88;3.17;;;11.20;92.50;;;;;;4979792;28;20594;-69
2024/01/28 09:46:48;;;;;;;17.75;4.28;;;12.30;89.60;;;;;;4980208;28;20026;-69
2024/01/28 09:49:15;;;;;;;11.45;3.60;;;13.40;82.20;;;;;;4982290;28;20080;-69
2024/01/28 09:51:44;;;;;;;10.35;3.70;;;14.30;76.00;;;;;;4982854;28;20045;-69
2024/01/28 09:54:12;;;;;;;13.95;4.28;;;14.80;73.00;;;;;;4980890;28;20070;-69
2024/01/28 09:56:40;;;;;;;9.93;3.85;;;15.20;69.40;;;;;;4982044;28;20030;-69
2024/01/28 09:59:08;;;;;;;9.90;3.50;;;15.70;67.30;;;;;;4982415;28;20042;-69
2024/01/28 10:01:34;;;;;;;6.88;4.00;;;16.20;64.80;;;;;;4980082;28;20505;-69
2024/01/28 10:04:01;;;;;;;8.55;3.42;;;16.80;61.50;;;;;;4981799;28;20042;-69
2024/01/28 10:06:27;;;;;;;6.88;2.83;;;16.80;62.20;;;;;;4982443;28;20038;-69
2024/01/28 10:08:53;;;;;;;8.40;3.53;;;16.60;60.40;;;;;;4981515;28;20026;-69
2024/01/28 10:11:19;;;;;;;9.65;3.13;;;16.40;59.60;;;;;;4981301;28;20031;-69
2024/01/28 10:13:46;;;;;;;11.35;3.17;;;16.80;60.00;;;;;;4981653;28;20026;-67
2024/01/28 10:16:12;;;;;;;14.15;3.15;;;16.80;58.20;;;;;;4980899;28;20034;-66
2024/01/28 10:18:38;;;;;;;5.95;3.33;;;16.80;59.00;;;;;;4978975;28;20042;-67
2024/01/28 10:21:03;;;;;;;10.98;3.42;;;16.40;58.70;;;;;;4981153;28;20042;-67
2024/01/28 10:23:35;;;;;;;10.15;2.97;;;15.90;59.50;;;;;;4982486;28;20070;-67
2024/01/28 10:26:01;;;;;;;10.57;3.97;;;15.30;62.60;;;;;;4978653;28;20534;-67
2024/01/28 10:28:29;;;;;;;10.57;3.08;;;14.90;63.30;;;;;;4981522;28;20087;-67
2024/01/28 10:30:55;;;;;;;14.60;3.80;;;15.10;63.00;;;;;;4981115;28;20045;-67
2024/01/28 10:33:21;;;;;;;10.93;2.95;;;15.30;62.10;;;;;;4980737;28;20077;-67
2024/01/28 10:35:47;;;;;;;10.18;3.30;;;15.50;61.50;;;;;;4980241;28;20057;-66
2024/01/28 10:38:20;;;;;;;9.15;2.97;;;15.40;61.00;;;;;;4978077;28;20489;-66
2024/01/28 10:40:49;;;;;;;6.75;2.78;;;14.60;63.30;;;;;;4995311;28;20030;-69
2024/01/28 10:43:16;;;;;;;13.48;2.92;;;14.00;65.20;;;;;;4982016;28;20034;-69
2024/01/28 10:45:45;;;;;;;8.55;2.88;;;13.70;65.80;;;;;;4980891;28;20057;-69
2024/01/28 10:48:17;;;;;;;13.05;2.63;;;13.40;67.00;;;;;;4979183;28;20037;-69
2024/01/28 10:50:43;;;;;;;7.65;2.75;;;13.40;67.80;;;;;;4979950;28;20117;-70
2024/01/28 10:53:11;;;;;;;7.95;2.63;;;13.50;67.30;;;;;;4980654;28;20045;-69
2024/01/28 10:55:41;;;;;;;10.32;2.78;;;13.70;66.80;;;;;;4979917;28;20067;-70
2024/01/28 10:58:06;;;;;;;9.05;2.45;;;13.80;66.60;;;;;;4980026;28;20027;-70
2024/01/28 11:00:34;;;;;;;11.45;2.88;;;14.50;64.90;;;;;;4982361;28;20053;-69
2024/01/28 11:03:01;;;;;;;17.45;2.63;;;14.40;63.80;;;;;;4978886;28;20034;-69
2024/01/28 11:05:28;;;;;;;7.45;2.55;;;14.60;64.20;;;;;;4980448;28;20041;-70
2024/01/28 11:07:59;;;;;;;15.65;3.53;;;15.80;60.40;;;;;;4979684;28;20037;-69
2024/01/28 11:10:29;;;;;;;11.75;2.70;;;16.10;58.80;;;;;;4980926;28;20080;-69
2024/01/28 11:12:58;;;;;;;8.38;2.67;;;16.80;59.20;;;;;;4980989;28;20027;-69
2024/01/28 11:15:26;;;;;;;8.02;2.40;;;17.30;56.70;;;;;;4975318;28;20643;-69
2024/01/28 11:17:52;;;;;;;6.30;2.72;;;18.00;55.50;;;;;;4978715;28;20121;-70
2024/01/28 11:20:24;;;;;;;7.63;2.90;;;18.00;55.10;;;;;;4980278;28;20033;-70
2024/01/28 11:22:51;;;;;;;7.20;2.30;;;17.70;53.90;;;;;;4979601;28;20642;-69
2024/01/28 11:25:28;;;;;;;7.82;2.03;;;17.40;55.40;;;;;;4979249;28;20035;-70
2024/01/28 11:28:00;;;;;;;10.43;2.53;;;17.60;54.80;;;;;;4977619;28;20073;-71
2024/01/28 11:30:26;;;;;;;10.35;2.65;;;16.40;56.00;;;;;;4980262;28;20027;-66
2024/01/28 11:33:16;;;;;;;13.38;4.43;;;14.20;61.30;;;;;;4983346;28;20378;-63
2024/01/28 11:35:45;;;;;;;12.43;4.63;;;12.70;67.00;;;;;;4979685;28;20046;-66
2024/01/28 11:38:19;;;;;;;8.63;2.35;;;11.30;70.80;;;;;;4979790;28;20065;-66
2024/01/28 11:40:54;;;;;;;27.40;11.52;;;10.40;72.70;;;;;;4977544;28;20049;-65
2024/01/28 11:43:21;;;;;;;8.65;3.00;;;9.90;76.20;;;;;;4980096;28;20056;-66
2024/01/28 11:45:48;;;;;;;11.43;3.75;;;9.40;79.40;;;;;;4979341;28;20108;-65
2024/01/28 11:48:14;;;;;;;31.02;13.55;;;9.10;81.60;;;;;;4980576;28;20027;-65
2024/01/28 11:50:41;;;;;;;25.55;9.48;;;9.10;80.80;;;;;;4978646;28;20041;-66
2024/01/28 11:53:08;;;;;;;27.90;10.98;;;9.10;81.40;;;;;;4978913;28;20034;-66
2024/01/28 11:55:34;;;;;;;13.02;3.55;;;9.20;82.50;;;;;;4979306;28;20501;-66
2024/01/28 11:58:00;;;;;;;7.20;1.75;;;9.10;81.80;;;;;;4977256;28;20169;-66
2024/01/28 12:00:26;;;;;;;5.30;2.42;;;9.00;83.10;;;;;;4977597;28;20091;-66
2024/01/28 12:02:53;;;;;;;6.18;2.25;;;9.00;84.00;;;;;;4978912;28;20030;-66
2024/01/28 12:05:19;;;;;;;9.00;2.28;;;9.00;83.40;;;;;;4980279;28;20549;-67
2024/01/28 12:07:46;;;;;;;8.57;1.92;;;9.10;83.60;;;;;;4979344;28;20049;-66
2024/01/28 12:10:13;;;;;;;11.57;2.20;;;9.10;84.20;;;;;;4978686;28;20031;-66
2024/01/28 12:12:42;;;;;;;11.13;2.72;;;9.10;83.20;;;;;;4979678;28;20810;-66
2024/01/28 12:15:11;;;;;;;10.90;2.90;;;9.10;83.90;;;;;;4980827;28;20092;-65
2024/01/28 12:17:38;;;;;;;8.77;2.78;;;9.20;83.30;;;;;;4978914;28;20180;-68
2024/01/28 12:20:06;;;;;;;6.95;2.00;;;9.20;82.40;;;;;;4979162;28;20042;-66
2024/01/28 12:22:50;;;;;;;10.05;2.17;;;9.10;81.00;;;;;;4979917;28;20857;-65
2024/01/28 12:25:21;;;;;;;4.90;1.77;;;9.10;83.00;;;;;;4966950;28;20414;-70
2024/01/28 12:27:50;;;;;;;7.82;1.85;;;9.10;83.60;;;;;;4976951;28;20033;-70
2024/01/28 12:30:17;;;;;;;7.93;2.17;;;9.10;82.10;;;;;;4981581;28;20038;-66
2024/01/28 12:32:44;;;;;;;7.50;1.80;;;9.20;84.10;;;;;;4980466;28;20500;-65
2024/01/28 12:35:10;;;;;;;14.48;3.63;;;9.30;83.80;;;;;;4980142;28;20124;-65
2024/01/28 12:37:37;;;;;;;5.80;1.70;;;9.40;82.80;;;;;;4981111;28;20022;-65
2024/01/28 12:40:03;;;;;;;12.40;2.60;;;9.40;82.40;;;;;;4979286;28;20038;-65
2024/01/28 12:42:30;;;;;;;6.55;2.10;;;9.40;81.90;;;;;;4979482;28;20045;-65
2024/01/28 12:44:56;;;;;;;12.88;3.42;;;9.40;82.40;;;;;;4979271;28;20040;-65
2024/01/28 12:47:21;;;;;;;9.60;2.95;;;9.50;82.20;;;;;;4979049;28;20746;-65
2024/01/28 12:49:47;;;;;;;5.57;2.15;;;9.40;81.90;;;;;;4976655;28;20033;-65
2024/01/28 12:52:14;;;;;;;10.27;2.03;;;9.40;82.50;;;;;;4979643;28;20118;-66